sensor_id;sensor_type;location;lat;lon;timestamp;P1;durP1;ratioP1;P2;durP2;ratioP2
17283;SDS011;8760;52.248;20.952;2023-07-31T00:00:18;2.30;;;1.85;;
17283;SDS011;8760;52.248;20.952;2023-07-31T00:02:45;4.18;;;2.00;;
17283;SDS011;8760;52.248;20.952;2023-07-31T00:05:11;2.78;;;2.00;;
17283;SDS011;8760;52.248;20.952;2023-07-31T00:07:40;2.15;;;1.95;;
17283;SDS011;8760;52.248;20.952;2023-07-31T00:10:07;2.20;;;2.00;;
17283;SDS011;8760;52.248;20.952;2023-07-31T00:12:34;2.95;;;1.92;;
17283;SDS011;8760;52.248;20.952;2023-07-31T00:15:01;1.90;;;1.80;;
17283;SDS011;8760;52.248;20.952;2023-07-31T00:17:28;4.75;;;1.80;;
17283;SDS011;8760;52.248;20.952;2023-07-31T00:19:55;2.70;;;2.10;;
17283;SDS011;8760;52.248;20.952;2023-07-31T00:22:22;2.72;;;1.83;;
17283;SDS011;8760;52.248;20.952;2023-07-31T00:24:51;2.00;;;1.80;;
17283;SDS011;8760;52.248;20.952;2023-07-31T00:27:18;3.47;;;2.20;;
17283;SDS011;8760;52.248;20.952;2023-07-31T00:29:45;3.38;;;1.80;;
17283;SDS011;8760;52.248;20.952;2023-07-31T00:32:11;2.17;;;1.90;;
17283;SDS011;8760;52.248;20.952;2023-07-31T00:34:38;3.90;;;1.90;;
17283;SDS011;8760;52.248;20.952;2023-07-31T00:37:05;2.17;;;1.92;;
17283;SDS011;8760;52.248;20.952;2023-07-31T00:39:33;2.30;;;2.05;;
17283;SDS011;8760;52.248;20.952;2023-07-31T00:42:01;2.60;;;1.70;;
17283;SDS011;8760;52.248;20.952;2023-07-31T00:44:29;1.90;;;1.80;;
17283;SDS011;8760;52.248;20.952;2023-07-31T00:46:56;2.30;;;2.10;;
17283;SDS011;8760;52.248;20.952;2023-07-31T00:49:24;2.85;;;2.20;;
17283;SDS011;8760;52.248;20.952;2023-07-31T00:51:51;1.90;;;1.80;;
17283;SDS011;8760;52.248;20.952;2023-07-31T00:54:19;2.10;;;1.92;;
17283;SDS011;8760;52.248;20.952;2023-07-31T00:56:46;2.00;;;1.90;;
17283;SDS011;8760;52.248;20.952;2023-07-31T00:59:15;2.53;;;1.80;;
17283;SDS011;8760;52.248;20.952;2023-07-31T01:01:43;2.85;;;1.95;;
17283;SDS011;8760;52.248;20.952;2023-07-31T01:04:11;5.55;;;2.13;;
17283;SDS011;8760;52.248;20.952;2023-07-31T01:06:40;2.05;;;1.85;;
17283;SDS011;8760;52.248;20.952;2023-07-31T01:09:16;5.40;;;2.20;;
17283;SDS011;8760;52.248;20.952;2023-07-31T01:11:52;2.53;;;2.33;;
17283;SDS011;8760;52.248;20.952;2023-07-31T01:14:24;3.92;;;2.00;;
17283;SDS011;8760;52.248;20.952;2023-07-31T01:16:51;3.13;;;2.15;;
17283;SDS011;8760;52.248;20.952;2023-07-31T01:19:18;4.50;;;1.95;;
17283;SDS011;8760;52.248;20.952;2023-07-31T01:21:56;2.25;;;2.00;;
17283;SDS011;8760;52.248;20.952;2023-07-31T01:24:36;2.33;;;2.13;;
17283;SDS011;8760;52.248;20.952;2023-07-31T01:27:14;3.47;;;2.20;;
17283;SDS011;8760;52.248;20.952;2023-07-31T01:29:47;2.40;;;2.20;;
17283;SDS011;8760;52.248;20.952;2023-07-31T01:32:20;14.07;;;2.72;;
17283;SDS011;8760;52.248;20.952;2023-07-31T01:34:48;2.28;;;2.08;;
17283;SDS011;8760;52.248;20.952;2023-07-31T01:37:16;2.75;;;2.28;;
17283;SDS011;8760;52.248;20.952;2023-07-31T01:39:43;5.65;;;2.20;;
17283;SDS011;8760;52.248;20.952;2023-07-31T01:42:10;3.22;;;2.10;;
17283;SDS011;8760;52.248;20.952;2023-07-31T01:44:38;1.98;;;1.88;;
17283;SDS011;8760;52.248;20.952;2023-07-31T01:47:05;2.42;;;2.22;;
17283;SDS011;8760;52.248;20.952;2023-07-31T01:49:32;2.40;;;2.20;;
17283;SDS011;8760;52.248;20.952;2023-07-31T01:51:59;3.08;;;2.47;;
17283;SDS011;8760;52.248;20.952;2023-07-31T01:54:26;2.55;;;2.35;;
17283;SDS011;8760;52.248;20.952;2023-07-31T01:56:52;3.28;;;2.58;;
17283;SDS011;8760;52.248;20.952;2023-07-31T01:59:19;2.97;;;2.30;;
17283;SDS011;8760;52.248;20.952;2023-07-31T02:01:47;2.42;;;2.22;;
17283;SDS011;8760;52.248;20.952;2023-07-31T02:04:15;3.70;;;2.28;;
17283;SDS011;8760;52.248;20.952;2023-07-31T02:06:41;2.40;;;2.20;;
17283;SDS011;8760;52.248;20.952;2023-07-31T02:09:09;5.05;;;2.75;;
17283;SDS011;8760;52.248;20.952;2023-07-31T02:11:36;3.25;;;2.60;;
17283;SDS011;8760;52.248;20.952;2023-07-31T02:14:03;3.42;;;2.50;;
17283;SDS011;8760;52.248;20.952;2023-07-31T02:16:30;4.15;;;2.60;;
17283;SDS011;8760;52.248;20.952;2023-07-31T02:18:58;4.05;;;2.70;;
17283;SDS011;8760;52.248;20.952;2023-07-31T02:21:25;2.95;;;2.47;;
17283;SDS011;8760;52.248;20.952;2023-07-31T02:23:52;3.50;;;2.67;;
17283;SDS011;8760;52.248;20.952;2023-07-31T02:26:18;4.90;;;2.80;;
17283;SDS011;8760;52.248;20.952;2023-07-31T02:28:46;3.10;;;2.47;;
17283;SDS011;8760;52.248;20.952;2023-07-31T02:31:12;3.05;;;2.75;;
17283;SDS011;8760;52.248;20.952;2023-07-31T02:33:39;3.58;;;2.53;;
17283;SDS011;8760;52.248;20.952;2023-07-31T02:36:07;4.38;;;2.92;;
17283;SDS011;8760;52.248;20.952;2023-07-31T02:38:34;4.68;;;2.97;;
17283;SDS011;8760;52.248;20.952;2023-07-31T02:41:01;3.13;;;2.92;;
17283;SDS011;8760;52.248;20.952;2023-07-31T02:43:28;3.80;;;3.05;;
17283;SDS011;8760;52.248;20.952;2023-07-31T02:45:55;6.35;;;3.22;;
17283;SDS011;8760;52.248;20.952;2023-07-31T02:48:22;5.32;;;3.10;;
17283;SDS011;8760;52.248;20.952;2023-07-31T02:50:49;4.22;;;3.33;;
17283;SDS011;8760;52.248;20.952;2023-07-31T02:53:17;5.85;;;2.97;;
17283;SDS011;8760;52.248;20.952;2023-07-31T02:55:43;5.55;;;2.97;;
17283;SDS011;8760;52.248;20.952;2023-07-31T02:58:10;5.75;;;3.65;;
17283;SDS011;8760;52.248;20.952;2023-07-31T03:00:41;4.10;;;3.05;;
17283;SDS011;8760;52.248;20.952;2023-07-31T03:03:08;3.13;;;2.92;;
17283;SDS011;8760;52.248;20.952;2023-07-31T03:05:35;3.00;;;2.80;;
17283;SDS011;8760;52.248;20.952;2023-07-31T03:08:02;5.82;;;3.70;;
17283;SDS011;8760;52.248;20.952;2023-07-31T03:10:31;4.07;;;3.30;;
17283;SDS011;8760;52.248;20.952;2023-07-31T03:12:58;5.03;;;3.40;;
17283;SDS011;8760;52.248;20.952;2023-07-31T03:15:24;4.55;;;3.13;;
17283;SDS011;8760;52.248;20.952;2023-07-31T03:17:51;3.95;;;3.13;;
17283;SDS011;8760;52.248;20.952;2023-07-31T03:20:18;3.42;;;3.00;;
17283;SDS011;8760;52.248;20.952;2023-07-31T03:22:45;6.00;;;3.45;;
17283;SDS011;8760;52.248;20.952;2023-07-31T03:25:12;3.28;;;2.95;;
17283;SDS011;8760;52.248;20.952;2023-07-31T03:27:40;5.18;;;3.00;;
17283;SDS011;8760;52.248;20.952;2023-07-31T03:30:07;6.20;;;3.30;;
17283;SDS011;8760;52.248;20.952;2023-07-31T03:32:35;7.03;;;3.83;;
17283;SDS011;8760;52.248;20.952;2023-07-31T03:35:01;6.15;;;3.22;;
17283;SDS011;8760;52.248;20.952;2023-07-31T03:37:30;4.35;;;2.78;;
17283;SDS011;8760;52.248;20.952;2023-07-31T03:39:57;5.93;;;2.88;;
17283;SDS011;8760;52.248;20.952;2023-07-31T03:42:24;4.15;;;2.83;;
17283;SDS011;8760;52.248;20.952;2023-07-31T03:44:52;6.18;;;3.30;;
17283;SDS011;8760;52.248;20.952;2023-07-31T03:47:19;4.75;;;3.20;;
17283;SDS011;8760;52.248;20.952;2023-07-31T03:49:46;4.57;;;3.08;;
17283;SDS011;8760;52.248;20.952;2023-07-31T03:52:12;4.43;;;3.08;;
17283;SDS011;8760;52.248;20.952;2023-07-31T03:54:39;4.43;;;3.15;;
17283;SDS011;8760;52.248;20.952;2023-07-31T03:57:06;5.57;;;3.28;;
17283;SDS011;8760;52.248;20.952;2023-07-31T03:59:33;3.50;;;3.20;;
17283;SDS011;8760;52.248;20.952;2023-07-31T04:02:01;3.38;;;3.08;;
17283;SDS011;8760;52.248;20.952;2023-07-31T04:04:28;4.65;;;3.17;;
17283;SDS011;8760;52.248;20.952;2023-07-31T04:06:55;3.95;;;3.10;;
17283;SDS011;8760;52.248;20.952;2023-07-31T04:09:22;6.00;;;2.72;;
17283;SDS011;8760;52.248;20.952;2023-07-31T04:11:49;4.25;;;3.40;;
17283;SDS011;8760;52.248;20.952;2023-07-31T04:14:16;4.35;;;3.15;;
17283;SDS011;8760;52.248;20.952;2023-07-31T04:16:43;3.30;;;3.00;;
17283;SDS011;8760;52.248;20.952;2023-07-31T04:19:11;6.57;;;3.40;;
17283;SDS011;8760;52.248;20.952;2023-07-31T04:21:41;5.25;;;3.05;;
17283;SDS011;8760;52.248;20.952;2023-07-31T04:24:08;7.55;;;3.33;;
17283;SDS011;8760;52.248;20.952;2023-07-31T04:26:35;3.33;;;2.92;;
17283;SDS011;8760;52.248;20.952;2023-07-31T04:29:02;5.82;;;3.35;;
17283;SDS011;8760;52.248;20.952;2023-07-31T04:31:29;4.80;;;4.30;;
17283;SDS011;8760;52.248;20.952;2023-07-31T04:33:55;4.85;;;3.00;;
17283;SDS011;8760;52.248;20.952;2023-07-31T04:36:24;4.38;;;3.08;;
17283;SDS011;8760;52.248;20.952;2023-07-31T04:38:51;4.28;;;2.95;;
17283;SDS011;8760;52.248;20.952;2023-07-31T04:41:18;4.88;;;3.25;;
17283;SDS011;8760;52.248;20.952;2023-07-31T04:43:45;6.18;;;3.20;;
17283;SDS011;8760;52.248;20.952;2023-07-31T04:46:12;5.10;;;3.08;;
17283;SDS011;8760;52.248;20.952;2023-07-31T04:48:38;3.78;;;3.17;;
17283;SDS011;8760;52.248;20.952;2023-07-31T04:51:05;5.13;;;2.85;;
17283;SDS011;8760;52.248;20.952;2023-07-31T04:53:33;7.03;;;3.40;;
17283;SDS011;8760;52.248;20.952;2023-07-31T04:56:00;3.78;;;2.88;;
17283;SDS011;8760;52.248;20.952;2023-07-31T04:58:27;4.40;;;2.90;;
17283;SDS011;8760;52.248;20.952;2023-07-31T05:00:54;4.95;;;3.20;;
17283;SDS011;8760;52.248;20.952;2023-07-31T05:03:21;5.60;;;3.30;;
17283;SDS011;8760;52.248;20.952;2023-07-31T05:05:48;3.47;;;3.10;;
17283;SDS011;8760;52.248;20.952;2023-07-31T05:08:16;4.53;;;3.30;;
17283;SDS011;8760;52.248;20.952;2023-07-31T05:10:45;9.50;;;3.22;;
17283;SDS011;8760;52.248;20.952;2023-07-31T05:13:11;7.22;;;3.53;;
17283;SDS011;8760;52.248;20.952;2023-07-31T05:15:38;5.13;;;3.33;;
17283;SDS011;8760;52.248;20.952;2023-07-31T05:18:07;5.13;;;3.10;;
17283;SDS011;8760;52.248;20.952;2023-07-31T05:20:33;5.60;;;3.00;;
17283;SDS011;8760;52.248;20.952;2023-07-31T05:23:00;3.60;;;3.20;;
17283;SDS011;8760;52.248;20.952;2023-07-31T05:25:27;7.90;;;3.65;;
17283;SDS011;8760;52.248;20.952;2023-07-31T05:27:55;5.32;;;3.28;;
17283;SDS011;8760;52.248;20.952;2023-07-31T05:30:22;5.97;;;3.75;;
17283;SDS011;8760;52.248;20.952;2023-07-31T05:32:49;5.60;;;3.40;;
17283;SDS011;8760;52.248;20.952;2023-07-31T05:35:16;4.47;;;3.30;;
17283;SDS011;8760;52.248;20.952;2023-07-31T05:37:43;5.00;;;3.85;;
17283;SDS011;8760;52.248;20.952;2023-07-31T05:40:10;4.20;;;3.00;;
17283;SDS011;8760;52.248;20.952;2023-07-31T05:42:37;5.03;;;3.40;;
17283;SDS011;8760;52.248;20.952;2023-07-31T05:45:06;6.90;;;4.10;;
17283;SDS011;8760;52.248;20.952;2023-07-31T05:47:33;3.42;;;2.72;;
17283;SDS011;8760;52.248;20.952;2023-07-31T05:50:01;3.35;;;3.05;;
17283;SDS011;8760;52.248;20.952;2023-07-31T05:52:28;7.45;;;2.97;;
17283;SDS011;8760;52.248;20.952;2023-07-31T05:54:55;5.72;;;3.20;;
17283;SDS011;8760;52.248;20.952;2023-07-31T05:57:22;5.45;;;2.90;;
17283;SDS011;8760;52.248;20.952;2023-07-31T05:59:48;16.92;;;4.28;;
17283;SDS011;8760;52.248;20.952;2023-07-31T06:02:17;6.80;;;2.97;;
17283;SDS011;8760;52.248;20.952;2023-07-31T06:04:44;4.75;;;2.53;;
17283;SDS011;8760;52.248;20.952;2023-07-31T06:07:11;10.38;;;2.92;;
17283;SDS011;8760;52.248;20.952;2023-07-31T06:09:38;4.10;;;3.10;;
17283;SDS011;8760;52.248;20.952;2023-07-31T06:12:05;4.38;;;2.60;;
17283;SDS011;8760;52.248;20.952;2023-07-31T06:14:32;4.93;;;2.58;;
17283;SDS011;8760;52.248;20.952;2023-07-31T06:16:59;4.13;;;2.53;;
17283;SDS011;8760;52.248;20.952;2023-07-31T06:19:27;8.45;;;2.97;;
17283;SDS011;8760;52.248;20.952;2023-07-31T06:21:54;6.40;;;3.00;;
17283;SDS011;8760;52.248;20.952;2023-07-31T06:24:21;5.32;;;3.00;;
17283;SDS011;8760;52.248;20.952;2023-07-31T06:26:48;8.27;;;2.63;;
17283;SDS011;8760;52.248;20.952;2023-07-31T06:29:15;8.80;;;3.22;;
17283;SDS011;8760;52.248;20.952;2023-07-31T06:31:42;7.25;;;2.90;;
17283;SDS011;8760;52.248;20.952;2023-07-31T06:34:09;5.55;;;3.15;;
17283;SDS011;8760;52.248;20.952;2023-07-31T06:36:38;5.65;;;3.17;;
17283;SDS011;8760;52.248;20.952;2023-07-31T06:39:04;3.58;;;3.08;;
17283;SDS011;8760;52.248;20.952;2023-07-31T06:41:31;9.70;;;3.40;;
17283;SDS011;8760;52.248;20.952;2023-07-31T06:43:58;12.65;;;3.03;;
17283;SDS011;8760;52.248;20.952;2023-07-31T06:46:25;7.85;;;3.42;;
17283;SDS011;8760;52.248;20.952;2023-07-31T06:48:52;9.18;;;3.35;;
17283;SDS011;8760;52.248;20.952;2023-07-31T06:51:19;8.07;;;3.28;;
17283;SDS011;8760;52.248;20.952;2023-07-31T06:53:47;41.10;;;6.03;;
17283;SDS011;8760;52.248;20.952;2023-07-31T06:56:14;12.13;;;3.40;;
17283;SDS011;8760;52.248;20.952;2023-07-31T06:58:40;12.85;;;3.58;;
17283;SDS011;8760;52.248;20.952;2023-07-31T07:01:08;4.70;;;2.95;;
17283;SDS011;8760;52.248;20.952;2023-07-31T07:03:34;10.00;;;3.10;;
17283;SDS011;8760;52.248;20.952;2023-07-31T07:06:01;9.57;;;3.50;;
17283;SDS011;8760;52.248;20.952;2023-07-31T07:08:28;10.13;;;3.45;;
17283;SDS011;8760;52.248;20.952;2023-07-31T07:10:57;11.68;;;3.45;;
17283;SDS011;8760;52.248;20.952;2023-07-31T07:13:24;7.68;;;3.10;;
17283;SDS011;8760;52.248;20.952;2023-07-31T07:15:51;8.32;;;3.20;;
17283;SDS011;8760;52.248;20.952;2023-07-31T07:18:17;6.65;;;3.10;;
17283;SDS011;8760;52.248;20.952;2023-07-31T07:20:46;10.18;;;3.47;;
17283;SDS011;8760;52.248;20.952;2023-07-31T07:23:13;10.00;;;3.38;;
17283;SDS011;8760;52.248;20.952;2023-07-31T07:25:41;6.68;;;2.83;;
17283;SDS011;8760;52.248;20.952;2023-07-31T07:28:09;6.78;;;3.20;;
17283;SDS011;8760;52.248;20.952;2023-07-31T07:30:36;3.83;;;2.97;;
17283;SDS011;8760;52.248;20.952;2023-07-31T07:33:03;6.10;;;2.97;;
17283;SDS011;8760;52.248;20.952;2023-07-31T07:35:30;4.60;;;2.72;;
17283;SDS011;8760;52.248;20.952;2023-07-31T07:37:59;8.30;;;3.20;;
17283;SDS011;8760;52.248;20.952;2023-07-31T07:40:26;6.15;;;2.67;;
17283;SDS011;8760;52.248;20.952;2023-07-31T07:42:53;4.97;;;2.78;;
17283;SDS011;8760;52.248;20.952;2023-07-31T07:45:21;5.22;;;2.95;;
17283;SDS011;8760;52.248;20.952;2023-07-31T07:47:48;3.78;;;2.67;;
17283;SDS011;8760;52.248;20.952;2023-07-31T07:50:15;3.45;;;2.50;;
17283;SDS011;8760;52.248;20.952;2023-07-31T07:52:41;7.32;;;2.55;;
17283;SDS011;8760;52.248;20.952;2023-07-31T07:55:08;4.00;;;2.50;;
17283;SDS011;8760;52.248;20.952;2023-07-31T07:57:35;3.95;;;2.60;;
17283;SDS011;8760;52.248;20.952;2023-07-31T08:00:02;6.57;;;2.55;;
17283;SDS011;8760;52.248;20.952;2023-07-31T08:02:32;4.43;;;2.67;;
17283;SDS011;8760;52.248;20.952;2023-07-31T08:04:59;2.97;;;2.30;;
17283;SDS011;8760;52.248;20.952;2023-07-31T08:07:25;3.78;;;2.80;;
17283;SDS011;8760;52.248;20.952;2023-07-31T08:09:52;4.88;;;2.60;;
17283;SDS011;8760;52.248;20.952;2023-07-31T08:12:20;7.75;;;3.08;;
17283;SDS011;8760;52.248;20.952;2023-07-31T08:14:47;7.95;;;2.88;;
17283;SDS011;8760;52.248;20.952;2023-07-31T08:17:14;4.65;;;2.80;;
17283;SDS011;8760;52.248;20.952;2023-07-31T08:19:42;3.83;;;2.42;;
17283;SDS011;8760;52.248;20.952;2023-07-31T08:22:11;6.65;;;3.10;;
17283;SDS011;8760;52.248;20.952;2023-07-31T08:24:38;7.13;;;2.65;;
17283;SDS011;8760;52.248;20.952;2023-07-31T08:27:05;3.40;;;2.53;;
17283;SDS011;8760;52.248;20.952;2023-07-31T08:29:32;4.47;;;2.30;;
17283;SDS011;8760;52.248;20.952;2023-07-31T08:31:59;4.47;;;2.63;;
17283;SDS011;8760;52.248;20.952;2023-07-31T08:34:26;3.88;;;2.13;;
17283;SDS011;8760;52.248;20.952;2023-07-31T08:36:54;5.50;;;2.65;;
17283;SDS011;8760;52.248;20.952;2023-07-31T08:39:21;5.38;;;2.65;;
17283;SDS011;8760;52.248;20.952;2023-07-31T08:41:48;3.45;;;2.35;;
17283;SDS011;8760;52.248;20.952;2023-07-31T08:44:15;3.25;;;2.63;;
17283;SDS011;8760;52.248;20.952;2023-07-31T08:46:43;2.95;;;2.28;;
17283;SDS011;8760;52.248;20.952;2023-07-31T08:49:11;5.60;;;3.05;;
17283;SDS011;8760;52.248;20.952;2023-07-31T08:51:39;4.70;;;2.30;;
17283;SDS011;8760;52.248;20.952;2023-07-31T08:54:09;5.28;;;2.83;;
17283;SDS011;8760;52.248;20.952;2023-07-31T08:56:36;5.40;;;2.38;;
17283;SDS011;8760;52.248;20.952;2023-07-31T08:59:03;7.10;;;2.30;;
17283;SDS011;8760;52.248;20.952;2023-07-31T09:01:30;4.70;;;2.58;;
17283;SDS011;8760;52.248;20.952;2023-07-31T09:04:02;3.58;;;2.38;;
17283;SDS011;8760;52.248;20.952;2023-07-31T09:06:31;5.28;;;2.78;;
17283;SDS011;8760;52.248;20.952;2023-07-31T09:08:59;5.75;;;2.35;;
17283;SDS011;8760;52.248;20.952;2023-07-31T09:11:28;5.43;;;2.67;;
17283;SDS011;8760;52.248;20.952;2023-07-31T09:13:56;5.88;;;2.45;;
17283;SDS011;8760;52.248;20.952;2023-07-31T09:16:27;2.97;;;2.30;;
17283;SDS011;8760;52.248;20.952;2023-07-31T09:18:57;4.80;;;2.65;;
17283;SDS011;8760;52.248;20.952;2023-07-31T09:21:26;4.53;;;2.22;;
17283;SDS011;8760;52.248;20.952;2023-07-31T09:23:53;5.20;;;2.17;;
17283;SDS011;8760;52.248;20.952;2023-07-31T09:26:32;4.43;;;2.03;;
17283;SDS011;8760;52.248;20.952;2023-07-31T09:29:00;5.20;;;2.00;;
17283;SDS011;8760;52.248;20.952;2023-07-31T09:31:33;2.58;;;2.38;;
17283;SDS011;8760;52.248;20.952;2023-07-31T09:34:05;4.32;;;2.40;;
17283;SDS011;8760;52.248;20.952;2023-07-31T09:36:32;4.72;;;2.50;;
17283;SDS011;8760;52.248;20.952;2023-07-31T09:39:03;4.68;;;2.30;;
17283;SDS011;8760;52.248;20.952;2023-07-31T09:41:32;3.55;;;2.30;;
17283;SDS011;8760;52.248;20.952;2023-07-31T09:44:03;3.80;;;2.20;;
17283;SDS011;8760;52.248;20.952;2023-07-31T09:46:30;4.70;;;2.17;;
17283;SDS011;8760;52.248;20.952;2023-07-31T09:49:04;2.08;;;1.90;;
17283;SDS011;8760;52.248;20.952;2023-07-31T09:51:35;4.05;;;2.00;;
17283;SDS011;8760;52.248;20.952;2023-07-31T09:54:04;4.72;;;2.70;;
17283;SDS011;8760;52.248;20.952;2023-07-31T09:56:41;3.85;;;2.42;;
17283;SDS011;8760;52.248;20.952;2023-07-31T09:59:10;5.10;;;2.53;;
17283;SDS011;8760;52.248;20.952;2023-07-31T10:01:38;4.07;;;1.70;;
17283;SDS011;8760;52.248;20.952;2023-07-31T10:04:07;3.40;;;1.98;;
17283;SDS011;8760;52.248;20.952;2023-07-31T10:06:35;4.03;;;1.88;;
17283;SDS011;8760;52.248;20.952;2023-07-31T10:09:04;4.78;;;1.70;;
17283;SDS011;8760;52.248;20.952;2023-07-31T10:11:34;3.40;;;1.70;;
17283;SDS011;8760;52.248;20.952;2023-07-31T10:14:06;5.63;;;2.03;;
17283;SDS011;8760;52.248;20.952;2023-07-31T10:16:34;5.85;;;3.15;;
17283;SDS011;8760;52.248;20.952;2023-07-31T10:19:04;3.15;;;1.60;;
17283;SDS011;8760;52.248;20.952;2023-07-31T10:21:33;3.50;;;1.95;;
17283;SDS011;8760;52.248;20.952;2023-07-31T10:24:02;4.68;;;1.90;;
17283;SDS011;8760;52.248;20.952;2023-07-31T10:26:31;6.65;;;1.88;;
17283;SDS011;8760;52.248;20.952;2023-07-31T10:28:58;2.17;;;1.27;;
17283;SDS011;8760;52.248;20.952;2023-07-31T10:31:27;2.42;;;1.70;;
17283;SDS011;8760;52.248;20.952;2023-07-31T10:33:55;2.25;;;1.50;;
17283;SDS011;8760;52.248;20.952;2023-07-31T10:36:24;3.28;;;1.88;;
17283;SDS011;8760;52.248;20.952;2023-07-31T10:38:52;4.35;;;2.15;;
17283;SDS011;8760;52.248;20.952;2023-07-31T10:41:26;5.68;;;2.20;;
17283;SDS011;8760;52.248;20.952;2023-07-31T10:43:54;6.75;;;1.85;;
17283;SDS011;8760;52.248;20.952;2023-07-31T10:46:24;6.00;;;1.52;;
17283;SDS011;8760;52.248;20.952;2023-07-31T10:48:58;3.55;;;1.42;;
17283;SDS011;8760;52.248;20.952;2023-07-31T10:51:32;3.33;;;1.50;;
17283;SDS011;8760;52.248;20.952;2023-07-31T10:54:10;2.10;;;1.38;;
17283;SDS011;8760;52.248;20.952;2023-07-31T10:56:40;6.35;;;3.45;;
17283;SDS011;8760;52.248;20.952;2023-07-31T10:59:11;2.47;;;1.30;;
17283;SDS011;8760;52.248;20.952;2023-07-31T11:01:51;4.25;;;1.17;;
17283;SDS011;8760;52.248;20.952;2023-07-31T11:04:23;2.67;;;1.40;;
17283;SDS011;8760;52.248;20.952;2023-07-31T11:06:57;1.80;;;1.17;;
17283;SDS011;8760;52.248;20.952;2023-07-31T11:09:24;4.78;;;2.33;;
17283;SDS011;8760;52.248;20.952;2023-07-31T11:11:56;6.47;;;1.73;;
17283;SDS011;8760;52.248;20.952;2023-07-31T11:14:23;3.38;;;1.65;;
17283;SDS011;8760;52.248;20.952;2023-07-31T11:16:49;3.63;;;1.95;;
17283;SDS011;8760;52.248;20.952;2023-07-31T11:19:21;4.15;;;1.73;;
17283;SDS011;8760;52.248;20.952;2023-07-31T11:21:50;3.08;;;1.52;;
17283;SDS011;8760;52.248;20.952;2023-07-31T11:24:17;3.95;;;1.58;;
17283;SDS011;8760;52.248;20.952;2023-07-31T11:26:49;3.65;;;1.52;;
17283;SDS011;8760;52.248;20.952;2023-07-31T11:29:27;3.33;;;1.30;;
17283;SDS011;8760;52.248;20.952;2023-07-31T11:31:54;6.00;;;1.90;;
17283;SDS011;8760;52.248;20.952;2023-07-31T11:34:22;4.35;;;1.50;;
17283;SDS011;8760;52.248;20.952;2023-07-31T11:36:53;4.93;;;1.35;;
17283;SDS011;8760;52.248;20.952;2023-07-31T11:39:21;5.03;;;1.80;;
17283;SDS011;8760;52.248;20.952;2023-07-31T11:41:48;5.30;;;1.50;;
17283;SDS011;8760;52.248;20.952;2023-07-31T11:44:15;3.85;;;1.70;;
17283;SDS011;8760;52.248;20.952;2023-07-31T11:46:42;3.78;;;1.30;;
17283;SDS011;8760;52.248;20.952;2023-07-31T11:49:09;4.65;;;1.50;;
17283;SDS011;8760;52.248;20.952;2023-07-31T11:51:37;3.95;;;1.40;;
17283;SDS011;8760;52.248;20.952;2023-07-31T11:54:04;2.58;;;1.52;;
17283;SDS011;8760;52.248;20.952;2023-07-31T11:56:31;3.55;;;1.38;;
17283;SDS011;8760;52.248;20.952;2023-07-31T11:58:59;5.70;;;2.83;;
17283;SDS011;8760;52.248;20.952;2023-07-31T12:01:30;2.60;;;2.03;;
17283;SDS011;8760;52.248;20.952;2023-07-31T12:03:58;3.25;;;1.88;;
17283;SDS011;8760;52.248;20.952;2023-07-31T12:06:32;5.13;;;1.80;;
17283;SDS011;8760;52.248;20.952;2023-07-31T12:09:02;2.17;;;1.63;;
17283;SDS011;8760;52.248;20.952;2023-07-31T12:11:30;1.73;;;1.60;;
17283;SDS011;8760;52.248;20.952;2023-07-31T12:13:57;2.95;;;1.52;;
17283;SDS011;8760;52.248;20.952;2023-07-31T12:16:26;2.17;;;1.50;;
17283;SDS011;8760;52.248;20.952;2023-07-31T12:18:54;3.17;;;1.73;;
17283;SDS011;8760;52.248;20.952;2023-07-31T12:21:21;3.90;;;2.20;;
17283;SDS011;8760;52.248;20.952;2023-07-31T12:23:48;2.97;;;1.50;;
17283;SDS011;8760;52.248;20.952;2023-07-31T12:26:16;3.25;;;1.50;;
17283;SDS011;8760;52.248;20.952;2023-07-31T12:28:44;3.63;;;1.75;;
17283;SDS011;8760;52.248;20.952;2023-07-31T12:31:12;6.20;;;2.10;;
17283;SDS011;8760;52.248;20.952;2023-07-31T12:33:40;3.80;;;2.03;;
17283;SDS011;8760;52.248;20.952;2023-07-31T12:36:08;4.45;;;2.10;;
17283;SDS011;8760;52.248;20.952;2023-07-31T12:38:36;3.75;;;2.03;;
17283;SDS011;8760;52.248;20.952;2023-07-31T12:41:03;9.80;;;2.58;;
17283;SDS011;8760;52.248;20.952;2023-07-31T12:43:33;4.25;;;1.85;;
17283;SDS011;8760;52.248;20.952;2023-07-31T12:46:00;4.40;;;1.35;;
17283;SDS011;8760;52.248;20.952;2023-07-31T12:48:27;2.97;;;1.63;;
17283;SDS011;8760;52.248;20.952;2023-07-31T12:50:54;3.85;;;1.98;;
17283;SDS011;8760;52.248;20.952;2023-07-31T12:53:20;3.33;;;1.30;;
17283;SDS011;8760;52.248;20.952;2023-07-31T12:55:47;7.53;;;2.33;;
17283;SDS011;8760;52.248;20.952;2023-07-31T12:58:15;3.42;;;1.55;;
17283;SDS011;8760;52.248;20.952;2023-07-31T13:00:43;3.40;;;1.67;;
17283;SDS011;8760;52.248;20.952;2023-07-31T13:03:10;2.97;;;1.60;;
17283;SDS011;8760;52.248;20.952;2023-07-31T13:05:37;8.35;;;1.98;;
17283;SDS011;8760;52.248;20.952;2023-07-31T13:08:04;5.40;;;1.92;;
17283;SDS011;8760;52.248;20.952;2023-07-31T13:10:31;4.80;;;1.75;;
17283;SDS011;8760;52.248;20.952;2023-07-31T13:12:58;2.53;;;1.45;;
17283;SDS011;8760;52.248;20.952;2023-07-31T13:15:24;3.88;;;1.73;;
17283;SDS011;8760;52.248;20.952;2023-07-31T13:17:53;5.82;;;1.60;;
17283;SDS011;8760;52.248;20.952;2023-07-31T13:20:19;5.25;;;1.70;;
17283;SDS011;8760;52.248;20.952;2023-07-31T13:22:46;4.35;;;1.60;;
17283;SDS011;8760;52.248;20.952;2023-07-31T13:25:13;4.07;;;1.88;;
17283;SDS011;8760;52.248;20.952;2023-07-31T13:27:40;2.83;;;1.60;;
17283;SDS011;8760;52.248;20.952;2023-07-31T13:30:07;3.17;;;1.60;;
17283;SDS011;8760;52.248;20.952;2023-07-31T13:32:34;4.40;;;1.73;;
17283;SDS011;8760;52.248;20.952;2023-07-31T13:35:05;6.57;;;1.80;;
17283;SDS011;8760;52.248;20.952;2023-07-31T13:37:32;3.78;;;1.55;;
17283;SDS011;8760;52.248;20.952;2023-07-31T13:39:59;4.85;;;1.85;;
17283;SDS011;8760;52.248;20.952;2023-07-31T13:42:27;5.60;;;1.65;;
17283;SDS011;8760;52.248;20.952;2023-07-31T13:44:56;5.47;;;2.15;;
17283;SDS011;8760;52.248;20.952;2023-07-31T13:47:23;5.22;;;1.98;;
17283;SDS011;8760;52.248;20.952;2023-07-31T13:49:49;3.53;;;1.50;;
17283;SDS011;8760;52.248;20.952;2023-07-31T13:52:18;4.60;;;1.67;;
17283;SDS011;8760;52.248;20.952;2023-07-31T13:54:44;4.72;;;1.88;;
17283;SDS011;8760;52.248;20.952;2023-07-31T13:57:12;3.25;;;1.60;;
17283;SDS011;8760;52.248;20.952;2023-07-31T13:59:38;3.67;;;2.00;;
17283;SDS011;8760;52.248;20.952;2023-07-31T14:02:06;3.55;;;1.75;;
17283;SDS011;8760;52.248;20.952;2023-07-31T14:04:32;4.55;;;1.67;;
17283;SDS011;8760;52.248;20.952;2023-07-31T14:06:59;2.90;;;1.60;;
17283;SDS011;8760;52.248;20.952;2023-07-31T14:09:28;3.92;;;1.60;;
17283;SDS011;8760;52.248;20.952;2023-07-31T14:11:54;3.25;;;1.50;;
17283;SDS011;8760;52.248;20.952;2023-07-31T14:14:21;6.47;;;1.90;;
17283;SDS011;8760;52.248;20.952;2023-07-31T14:16:48;3.90;;;2.08;;
17283;SDS011;8760;52.248;20.952;2023-07-31T14:19:15;2.78;;;1.30;;
17283;SDS011;8760;52.248;20.952;2023-07-31T14:21:42;4.95;;;1.90;;
17283;SDS011;8760;52.248;20.952;2023-07-31T14:24:09;5.35;;;1.80;;
17283;SDS011;8760;52.248;20.952;2023-07-31T14:26:37;3.70;;;1.83;;
17283;SDS011;8760;52.248;20.952;2023-07-31T14:29:04;3.42;;;1.70;;
17283;SDS011;8760;52.248;20.952;2023-07-31T14:31:31;3.53;;;1.70;;
17283;SDS011;8760;52.248;20.952;2023-07-31T14:33:58;6.30;;;1.90;;
17283;SDS011;8760;52.248;20.952;2023-07-31T14:36:25;4.80;;;1.77;;
17283;SDS011;8760;52.248;20.952;2023-07-31T14:38:52;3.63;;;1.70;;
17283;SDS011;8760;52.248;20.952;2023-07-31T14:41:18;2.60;;;1.65;;
17283;SDS011;8760;52.248;20.952;2023-07-31T14:43:47;3.38;;;1.77;;
17283;SDS011;8760;52.248;20.952;2023-07-31T14:46:13;3.00;;;1.63;;
17283;SDS011;8760;52.248;20.952;2023-07-31T14:48:40;4.25;;;1.85;;
17283;SDS011;8760;52.248;20.952;2023-07-31T14:51:07;5.18;;;1.80;;